createdAt,value
2018-05-02T00:03:39.364Z,85
2018-05-02T00:09:05.921Z,85
2018-05-02T00:14:31.115Z,85
2018-05-02T00:19:57.632Z,85
2018-05-02T00:25:22.977Z,85
2018-05-02T00:30:48.350Z,85
2018-05-02T00:36:13.820Z,85
2018-05-02T00:41:40.231Z,85
2018-05-02T00:47:06.656Z,85
2018-05-02T00:52:33.393Z,85
2018-05-02T00:57:59.504Z,85
2018-05-02T01:03:24.771Z,85
2018-05-02T01:08:50.159Z,85
2018-05-02T01:14:16.521Z,85
2018-05-02T01:19:42.905Z,85
2018-05-02T01:25:08.377Z,85
2018-05-02T01:30:33.669Z,85
2018-05-02T01:35:59.020Z,85
2018-05-02T01:41:24.389Z,85
2018-05-02T01:46:49.774Z,85
2018-05-02T01:52:15.181Z,85
2018-05-02T01:57:41.510Z,85
2018-05-02T02:03:07.914Z,85
2018-05-02T02:08:34.130Z,85
2018-05-02T02:13:59.755Z,85
2018-05-02T02:19:26.051Z,85
2018-05-02T02:24:52.168Z,85
2018-05-02T02:30:17.553Z,85
2018-05-02T02:35:43.844Z,85
2018-05-02T02:41:09.155Z,85
2018-05-02T02:46:34.458Z,85
2018-05-02T02:52:00.768Z,85
2018-05-02T02:57:26.199Z,85
2018-05-02T03:02:52.369Z,85
2018-05-02T03:08:18.660Z,85
2018-05-02T03:13:44.997Z,85
2018-05-02T03:19:11.250Z,85
2018-05-02T03:24:36.552Z,85
2018-05-02T03:30:01.875Z,85
2018-05-02T03:35:27.189Z,85
2018-05-02T03:40:52.834Z,85
2018-05-02T03:46:18.011Z,85
2018-05-02T03:51:44.145Z,85
2018-05-02T03:57:09.391Z,84
2018-05-02T04:02:34.593Z,84
2018-05-02T04:08:00.811Z,84
2018-05-02T04:13:26.382Z,84
2018-05-02T04:18:51.435Z,84
2018-05-02T04:24:16.705Z,84
2018-05-02T04:29:42.171Z,84
2018-05-02T04:35:08.110Z,84
2018-05-02T04:40:33.726Z,84
2018-05-02T04:45:59.002Z,84
2018-05-02T04:51:24.381Z,84
2018-05-02T04:56:50.570Z,84
2018-05-02T05:02:15.964Z,84
2018-05-02T05:07:41.318Z,84
2018-05-02T05:13:06.552Z,84
2018-05-02T05:18:32.334Z,84
2018-05-02T05:23:58.317Z,84
2018-05-02T05:29:23.628Z,84
2018-05-02T05:34:49.264Z,84
2018-05-02T05:40:14.290Z,84
2018-05-02T05:45:40.710Z,84
2018-05-02T05:51:07.363Z,84
2018-05-02T05:56:33.443Z,84
2018-05-02T06:01:58.755Z,84
2018-05-02T06:07:24.187Z,84
2018-05-02T06:12:50.642Z,84
2018-05-02T06:18:15.948Z,84
2018-05-02T06:23:41.387Z,84
2018-05-02T06:29:06.775Z,84
2018-05-02T06:34:33.199Z,83
2018-05-02T06:39:59.624Z,83
2018-05-02T06:45:26.029Z,83
2018-05-02T06:50:52.672Z,83
2018-05-02T06:56:17.984Z,83
2018-05-02T07:01:44.722Z,82
2018-05-02T07:07:10.798Z,82
2018-05-02T07:12:37.346Z,82
2018-05-02T07:18:03.758Z,82
2018-05-02T07:23:30.237Z,82
2018-05-02T07:28:56.712Z,81
2018-05-02T07:34:23.195Z,81
2018-05-02T07:39:48.791Z,81
2018-05-02T07:45:15.264Z,80
2018-05-02T07:50:41.740Z,80
2018-05-02T07:56:07.328Z,80
2018-05-02T08:01:33.223Z,80
2018-05-02T08:06:59.363Z,79
2018-05-02T08:12:26.122Z,79
2018-05-02T08:17:51.517Z,79
2018-05-02T08:23:18.250Z,79
2018-05-02T08:28:43.621Z,78
2018-05-02T08:34:09.442Z,78
2018-05-02T08:39:36.299Z,78
2018-05-02T08:45:02.578Z,78
2018-05-02T08:50:29.074Z,78
2018-05-02T09:01:22.309Z,77
2018-05-02T09:06:49.027Z,77
2018-05-02T09:12:14.557Z,77
2018-05-02T09:17:41.354Z,77
2018-05-02T09:23:06.960Z,76
2018-05-02T09:28:32.601Z,76
2018-05-02T09:33:58.310Z,76
2018-05-02T09:39:24.982Z,76
2018-05-02T09:44:50.837Z,76
2018-05-02T09:50:16.547Z,76
2018-05-02T09:55:42.273Z,76
2018-05-02T10:01:09.140Z,75
2018-05-02T10:06:35.678Z,75
2018-05-02T10:12:02.532Z,75
2018-05-02T10:17:29.171Z,74
2018-05-02T10:22:55.946Z,74
2018-05-02T10:28:22.728Z,74
2018-05-02T10:33:48.511Z,74
2018-05-02T10:39:14.338Z,73
2018-05-02T10:50:07.980Z,72
2018-05-02T10:55:33.667Z,72
2018-05-02T11:01:00.495Z,72
2018-05-02T11:06:27.314Z,71
2018-05-02T11:11:53.282Z,70
2018-05-02T11:17:19.024Z,71
2018-05-02T11:22:44.875Z,70
2018-05-02T11:28:11.720Z,69
2018-05-02T11:33:39.174Z,69
2018-05-02T11:39:04.529Z,69
2018-05-02T11:44:30.362Z,69
2018-05-02T11:49:57.406Z,69
2018-05-02T11:55:24.198Z,68
2018-05-02T12:00:49.885Z,67
2018-05-02T12:06:15.749Z,67
2018-05-02T12:11:42.763Z,66
2018-05-02T12:17:08.440Z,66
2018-05-02T12:22:35.409Z,66
2018-05-02T12:28:01.328Z,65
2018-05-02T12:33:28.243Z,65
2018-05-02T12:38:54.144Z,64
2018-05-02T12:44:21.297Z,65
2018-05-02T12:49:48.000Z,64
2018-05-02T12:55:14.062Z,63
2018-05-02T13:00:39.883Z,63
2018-05-02T13:06:05.861Z,63
2018-05-02T13:11:32.812Z,63
2018-05-02T13:16:58.923Z,62
2018-05-02T13:22:24.800Z,62
2018-05-02T13:27:51.745Z,62
2018-05-02T13:33:18.022Z,62
2018-05-02T13:38:44.686Z,61
2018-05-02T13:44:11.636Z,61
2018-05-02T13:49:38.644Z,61
2018-05-02T13:55:04.806Z,60
2018-05-02T14:00:30.620Z,60
2018-05-02T14:05:56.599Z,60
2018-05-02T14:11:23.673Z,59
2018-05-02T14:16:49.728Z,59
2018-05-02T14:22:16.756Z,59
2018-05-02T14:27:42.659Z,59
2018-05-02T14:33:09.737Z,59
2018-05-02T14:38:36.729Z,58
2018-05-02T14:44:02.891Z,58
2018-05-02T14:49:29.061Z,58
2018-05-02T14:54:54.878Z,58
2018-05-02T15:00:22.707Z,57
2018-05-02T15:05:49.088Z,57
2018-05-02T15:11:15.263Z,57
2018-05-02T15:16:41.161Z,57
2018-05-02T15:22:08.435Z,56
2018-05-02T15:27:35.401Z,56
2018-05-02T15:33:01.431Z,56
2018-05-02T15:38:28.569Z,56
2018-05-02T15:43:54.609Z,56
2018-05-02T15:49:20.860Z,56
2018-05-02T15:54:47.816Z,56
2018-05-02T16:00:14.974Z,55
2018-05-02T16:05:41.331Z,55
2018-05-02T16:11:08.268Z,55
2018-05-02T16:16:35.350Z,54
2018-05-02T16:22:01.542Z,54
2018-05-02T16:27:27.651Z,54
2018-05-02T16:32:53.714Z,54
2018-05-02T16:38:19.824Z,54
2018-05-02T16:43:45.805Z,54
2018-05-02T16:49:11.913Z,54
2018-05-02T16:54:37.928Z,55
2018-05-02T17:00:04.121Z,54
2018-05-02T17:05:29.916Z,54
2018-05-02T17:10:55.887Z,54
2018-05-02T17:16:21.813Z,54
2018-05-02T17:21:48.733Z,54
2018-05-02T17:27:14.685Z,55
2018-05-02T17:32:41.946Z,55
2018-05-02T17:38:08.627Z,55
2018-05-02T17:43:34.551Z,55
2018-05-02T17:49:00.497Z,55
2018-05-02T17:54:26.410Z,55
2018-05-02T17:59:52.343Z,55
2018-05-02T18:05:18.248Z,55
2018-05-02T18:10:45.162Z,56
2018-05-02T18:16:11.090Z,57
2018-05-02T18:21:37.833Z,57
2018-05-02T18:27:03.606Z,57
2018-05-02T18:32:30.381Z,58
2018-05-02T18:37:57.195Z,58
2018-05-02T18:43:22.884Z,58
2018-05-02T18:48:48.563Z,59
2018-05-02T18:54:14.448Z,59
2018-05-02T18:59:39.907Z,59
2018-05-02T19:05:05.815Z,60
2018-05-02T19:10:31.375Z,60
2018-05-02T19:15:57.872Z,60
2018-05-02T19:21:23.581Z,61
2018-05-02T19:26:50.656Z,61
2018-05-02T19:32:15.891Z,61
2018-05-02T19:37:42.321Z,61
2018-05-02T19:43:09.068Z,61
2018-05-02T19:48:35.466Z,61
2018-05-02T19:54:01.199Z,61
2018-05-02T19:59:26.574Z,62
2018-05-02T20:04:53.133Z,62
2018-05-02T20:10:18.720Z,62
2018-05-02T20:15:45.238Z,62
2018-05-02T20:21:10.812Z,62
2018-05-02T20:26:36.210Z,62
2018-05-02T20:32:02.758Z,62
2018-05-02T20:37:28.276Z,62
2018-05-02T20:42:53.736Z,63
2018-05-02T20:48:19.220Z,63
2018-05-02T20:53:44.781Z,63
2018-05-02T20:59:11.062Z,63
2018-05-02T21:04:38.540Z,63
2018-05-02T21:10:03.041Z,63
2018-05-02T21:15:28.682Z,63
2018-05-02T21:20:53.883Z,63
2018-05-02T21:26:20.394Z,63
2018-05-02T21:31:45.835Z,64
2018-05-02T21:37:11.240Z,64
2018-05-02T21:42:36.586Z,64
2018-05-02T21:48:02.050Z,64
2018-05-02T21:53:27.548Z,64
2018-05-02T21:58:52.940Z,64
2018-05-02T22:04:18.417Z,64
2018-05-02T22:09:44.685Z,64
2018-05-02T22:15:11.042Z,64
2018-05-02T22:20:36.416Z,65
2018-05-02T22:26:02.849Z,65
2018-05-02T22:31:29.209Z,65
2018-05-02T22:36:55.613Z,65
2018-05-02T22:42:21.016Z,65
2018-05-02T22:47:46.319Z,65
2018-05-02T22:58:39.032Z,65
2018-05-02T23:04:04.396Z,65
2018-05-02T23:09:29.671Z,66
2018-05-02T23:14:55.007Z,66
2018-05-02T23:20:21.458Z,66
2018-05-02T23:25:46.666Z,66
2018-05-02T23:31:12.958Z,66
2018-05-02T23:36:38.245Z,66
2018-05-02T23:42:04.552Z,66
2018-05-02T23:47:30.872Z,66
2018-05-02T23:52:57.165Z,66
2018-05-02T23:58:22.404Z,66
